Time;durP1;ratioP1;P1;durP2;ratioP2;P2;SDS_P1;SDS_P2;PMS_P1;PMS_P2;Temp;Humidity;BMP_temperature;BMP_pressure;BME280_temperature;BME280_humidity;BME280_pressure;Samples;Min_cycle;Max_cycle;Signal;HPM_P1;HPM_P2
2022/09/18 00:03:58;;;;;;;8.60;2.35;;;;;;;10.71;100.00;99758.28;12221023;19;20010;-82
2022/09/18 00:08:00;;;;;;;5.70;2.40;;;;;;;10.68;100.00;99757.97;12216908;19;20033;-81
2022/09/18 00:12:01;;;;;;;8.30;2.47;;;;;;;10.65;100.00;99755.72;12196068;19;20010;-80
2022/09/18 00:16:05;;;;;;;9.43;2.40;;;;;;;10.60;100.00;99750.13;12221393;19;20010;-81
2022/09/18 00:20:07;;;;;;;6.63;2.60;;;;;;;10.56;100.00;99751.69;12216894;19;20510;-81
2022/09/18 00:24:10;;;;;;;4.72;2.38;;;;;;;10.59;100.00;99749.28;12194460;19;20071;-81
2022/09/18 00:28:12;;;;;;;6.40;2.58;;;;;;;10.60;100.00;99755.63;12212124;19;20062;-82
2022/09/18 00:32:14;;;;;;;8.80;2.97;;;;;;;10.62;100.00;99756.19;12196604;19;20463;-81
2022/09/18 00:36:19;;;;;;;10.48;2.80;;;;;;;10.60;100.00;99753.69;12215627;19;20010;-83
2022/09/18 00:40:20;;;;;;;12.02;2.58;;;;;;;10.63;100.00;99747.69;12213851;19;20491;-83
2022/09/18 00:44:28;;;;;;;6.72;2.35;;;;;;;10.64;100.00;99740.25;12193457;19;20471;-83
2022/09/18 00:48:39;;;;;;;8.55;2.10;;;;;;;10.63;100.00;99747.69;12215012;19;20033;-81
2022/09/18 00:52:56;;;;;;;3.92;2.03;;;;;;;10.63;100.00;99746.88;12215257;19;20562;-81
2022/09/18 00:57:04;;;;;;;4.68;1.70;;;;;;;10.63;100.00;99744.09;12194954;19;20033;-82
2022/09/18 01:01:07;;;;;;;4.82;2.08;;;;;;;10.60;100.00;99742.69;12213919;19;20094;-82
2022/09/18 01:05:11;;;;;;;5.70;1.90;;;;;;;10.60;100.00;99747.38;12213550;19;20015;-83
2022/09/18 01:09:44;;;;;;;5.38;1.80;;;;;;;10.67;100.00;99745.25;12219322;19;20002;-82
2022/09/18 01:14:04;;;;;;;5.70;1.87;;;;;;;10.68;100.00;99746.94;12217788;19;20073;-82
2022/09/18 01:18:30;;;;;;;6.18;2.00;;;;;;;10.74;100.00;99751.44;12194129;19;20100;-82
2022/09/18 01:22:59;;;;;;;11.30;2.13;;;;;;;10.79;100.00;99748.75;12214310;19;20018;-81
2022/09/18 01:27:09;;;;;;;6.50;1.73;;;;;;;10.74;100.00;99751.44;12195219;19;20363;-84
2022/09/18 01:31:35;;;;;;;5.40;2.03;;;;;;;10.87;100.00;99756.59;12238271;19;20011;-82
2022/09/18 01:35:47;;;;;;;5.15;1.58;;;;;;;10.91;100.00;99760.50;12232438;19;20015;-79
2022/09/18 01:40:14;;;;;;;6.07;1.73;;;;;;;11.02;100.00;99752.41;12255256;19;20011;-79
2022/09/18 01:44:22;;;;;;;5.32;1.27;;;;;;;10.96;100.00;99748.72;12232863;19;20022;-79
2022/09/18 01:48:28;;;;;;;3.33;1.30;;;;;;;10.97;100.00;99741.28;12242490;19;20053;-79
2022/09/18 01:52:42;;;;;;;3.50;1.80;;;;;;;10.97;100.00;99739.34;12218092;19;20109;-80
2022/09/18 01:56:54;;;;;;;3.45;1.42;;;;;;;11.00;100.00;99730.56;12201892;19;20007;-82
2022/09/18 02:01:02;;;;;;;9.20;2.05;;;;;;;11.03;100.00;99735.56;12216890;19;20010;-81
2022/09/18 02:05:07;;;;;;;8.75;2.35;;;;;;;11.03;100.00;99737.50;12217126;19;20059;-81
2022/09/18 02:09:10;;;;;;;3.70;1.50;;;;;;;10.92;100.00;99737.38;12191743;19;20037;-81
2022/09/18 02:13:18;;;;;;;6.68;1.45;;;;;;;10.89;100.00;99732.38;12206699;19;20010;-83
2022/09/18 02:17:34;;;;;;;3.72;1.42;;;;;;;10.85;100.00;99731.19;12200551;19;20017;-81
2022/09/18 02:21:36;;;;;;;5.32;1.70;;;;;;;10.87;100.00;99729.03;12225582;19;20783;-79
2022/09/18 02:25:53;;;;;;;3.93;1.50;;;;;;;10.86;100.00;99729.28;12228381;19;20009;-80
2022/09/18 02:29:57;;;;;;;5.00;1.70;;;;;;;10.78;100.00;99727.78;12204416;19;20026;-81
2022/09/18 02:33:58;;;;;;;4.22;1.75;;;;;;;10.80;100.00;99727.56;12226088;19;20010;-81
2022/09/18 02:38:36;;;;;;;7.47;2.00;;;;;;;10.81;100.00;99724.53;12223902;19;20495;-80
2022/09/18 02:42:56;;;;;;;8.07;1.77;;;;;;;10.82;100.00;99728.94;12202643;19;19999;-83
2022/09/18 02:47:09;;;;;;;6.97;2.15;;;;;;;10.86;100.00;99724.63;12225215;19;20019;-84
2022/09/18 02:51:27;;;;;;;5.95;1.60;;;;;;;10.85;100.00;99720.16;12203533;19;20038;-83
2022/09/18 02:55:48;;;;;;;5.03;2.05;;;;;;;10.83;100.00;99711.34;12229241;19;20159;-83
2022/09/18 02:59:54;;;;;;;7.75;1.88;;;;;;;10.83;100.00;99724.28;12202780;19;20112;-82
2022/09/18 03:04:02;;;;;;;5.82;1.88;;;;;;;10.82;100.00;99720.69;12229143;19;20022;-82
2022/09/18 03:08:15;;;;;;;4.25;1.65;;;;;;;10.79;100.00;99723.13;12212549;19;20014;-83
2022/09/18 03:12:17;;;;;;;5.03;1.75;;;;;;;10.77;100.00;99720.63;12228275;19;20058;-82
2022/09/18 03:16:21;;;;;;;7.38;1.90;;;;;;;10.75;100.00;99714.53;12219459;19;20120;-81
2022/09/18 03:20:23;;;;;;;10.70;2.55;;;;;;;10.72;100.00;99706.75;12200169;19;20007;-81
2022/09/18 03:24:26;;;;;;;4.45;1.92;;;;;;;10.72;100.00;99706.75;12222176;19;20010;-83
2022/09/18 03:28:31;;;;;;;7.38;2.30;;;;;;;10.70;100.00;99708.94;12219108;19;20078;-82
2022/09/18 03:32:33;;;;;;;5.28;1.83;;;;;;;10.63;100.00;99703.59;12194533;19;20024;-82
2022/09/18 03:36:35;;;;;;;3.90;1.63;;;;;;;10.68;100.00;99705.59;12214689;19;20011;-81
2022/09/18 03:40:37;;;;;;;6.23;1.73;;;;;;;10.68;100.00;99711.13;12217337;19;20006;-83
2022/09/18 03:44:39;;;;;;;5.10;2.08;;;;;;;10.64;100.00;99709.94;12196292;19;20242;-82
2022/09/18 03:48:55;;;;;;;6.18;1.70;;;;;;;10.66;100.00;99705.03;12218947;19;20601;-83
2022/09/18 03:52:59;;;;;;;4.68;1.50;;;;;;;10.68;100.00;99709.19;12219586;19;20090;-81
2022/09/18 03:57:17;;;;;;;3.40;1.58;;;;;;;10.69;100.00;99713.59;12205337;19;20003;-81
2022/09/18 04:01:39;;;;;;;5.25;1.33;;;;;;;10.73;100.00;99708.41;12216223;19;20007;-82
2022/09/18 04:05:59;;;;;;;3.28;1.60;;;;;;;10.78;100.00;99713.19;12192453;19;20011;-82
2022/09/18 04:10:20;;;;;;;4.13;1.33;;;;;;;10.76;100.00;99709.84;12220209;19;20013;-82
2022/09/18 04:14:21;;;;;;;2.35;1.35;;;;;;;10.75;100.00;99722.78;12197268;19;20440;-81
2022/09/18 04:18:30;;;;;;;2.95;1.40;;;;;;;10.76;100.00;99718.94;12221346;19;20015;-80
2022/09/18 04:22:33;;;;;;;5.10;1.48;;;;;;;10.77;100.00;99719.75;12219877;19;20017;-82
2022/09/18 04:26:35;;;;;;;3.95;1.30;;;;;;;10.81;100.00;99715.44;12198499;19;20400;-80
2022/09/18 04:30:38;;;;;;;5.22;1.40;;;;;;;10.76;100.00;99707.91;12219105;19;20019;-80
2022/09/18 04:34:39;;;;;;;4.55;1.30;;;;;;;10.73;100.00;99706.50;12220955;19;20007;-80
2022/09/18 04:38:42;;;;;;;4.25;1.30;;;;;;;10.77;100.00;99717.88;12198492;19;20033;-82
2022/09/18 04:42:44;;;;;;;3.22;1.42;;;;;;;10.79;100.00;99715.66;12218650;19;20371;-81
2022/09/18 04:46:46;;;;;;;4.47;1.40;;;;;;;10.74;100.00;99712.88;12216901;19;20006;-81
2022/09/18 04:50:49;;;;;;;2.67;1.17;;;;;;;10.77;100.00;99717.00;12194409;19;20006;-82
2022/09/18 04:54:51;;;;;;;2.17;1.10;;;;;;;10.76;100.00;99721.69;12214712;19;20010;-79
2022/09/18 04:58:53;;;;;;;6.53;1.35;;;;;;;10.78;100.00;99716.78;12237481;19;20007;-82
2022/09/18 05:02:55;;;;;;;5.33;1.10;;;;;;;10.76;100.00;99705.16;12202209;19;20015;-82
2022/09/18 05:07:00;;;;;;;4.30;1.27;;;;;;;10.79;100.00;99707.41;12218290;19;20363;-81
2022/09/18 05:11:03;;;;;;;3.83;1.08;;;;;;;10.81;100.00;99715.44;12220382;19;20010;-82
2022/09/18 05:15:09;;;;;;;3.55;1.10;;;;;;;10.84;100.00;99724.03;12198198;19;20034;-81
2022/09/18 05:19:11;;;;;;;2.30;0.90;;;;;;;10.85;100.00;99720.16;12218908;19;20029;-83
2022/09/18 05:23:13;;;;;;;2.20;0.93;;;;;;;10.85;100.00;99714.66;12194462;19;20090;-81
2022/09/18 05:27:15;;;;;;;4.43;1.00;;;;;;;10.85;100.00;99719.34;12215461;19;20010;-82
2022/09/18 05:31:17;;;;;;;1.63;0.70;;;;;;;10.85;100.00;99720.16;12256860;19;20036;-80
2022/09/18 05:35:22;;;;;;;2.55;0.80;;;;;;;10.93;100.00;99725.25;12235223;19;20010;-79
2022/09/18 05:39:23;;;;;;;3.17;1.08;;;;;;;10.87;100.00;99717.16;12237235;19;20091;-83
2022/09/18 05:43:31;;;;;;;1.40;0.63;;;;;;;10.90;100.00;99723.00;12223035;19;20011;-83
2022/09/18 05:47:35;;;;;;;1.30;0.80;;;;;;;10.95;100.00;99731.34;12198326;19;20041;-79
2022/09/18 05:51:38;;;;;;;5.25;1.10;;;;;;;11.03;100.00;99745.78;12223966;19;20014;-82
2022/09/18 05:55:40;;;;;;;3.20;1.00;;;;;;;11.07;100.00;99731.25;12227866;19;20007;-80
2022/09/18 05:59:42;;;;;;;1.80;1.00;;;;;;;11.06;100.00;99732.31;12201164;19;20010;-83
2022/09/18 06:03:44;;;;;;;6.50;1.00;;;;;;;11.13;100.00;99738.50;12221967;19;20011;-83
2022/09/18 06:07:46;;;;;;;1.25;0.75;;;;;;;11.14;100.00;99739.31;12219104;19;20020;-82
2022/09/18 06:11:53;;;;;;;2.03;0.70;;;;;;;11.12;100.00;99727.69;12201543;19;20010;-81
2022/09/18 06:15:57;;;;;;;3.38;0.95;;;;;;;11.18;100.00;99718.41;12221171;19;20706;-81
2022/09/18 06:20:18;;;;;;;2.35;0.80;;;;;;;11.22;100.00;99727.84;12197933;19;20037;-82
2022/09/18 06:24:20;;;;;;;2.85;0.68;;;;;;;11.31;100.00;99726.31;12220563;19;20363;-82
2022/09/18 06:28:33;;;;;;;2.38;0.80;;;;;;;11.39;100.00;99731.38;12220684;19;20464;-81
2022/09/18 06:32:36;;;;;;;1.17;0.65;;;;;;;11.37;100.00;99729.97;12201991;19;20047;-79
2022/09/18 06:36:38;;;;;;;1.75;0.88;;;;;;;11.48;100.00;99729.00;12233691;19;20100;-82
2022/09/18 06:40:54;;;;;;;2.05;0.70;;;;;;;11.57;100.00;99737.63;12215026;19;20007;-82
2022/09/18 06:45:11;;;;;;;1.45;0.60;;;;;;;11.62;100.00;99735.78;12191576;19;20732;-83
2022/09/18 06:49:13;;;;;;;3.42;0.55;;;;;;;11.72;100.00;99746.13;12210198;19;20062;-80
2022/09/18 06:53:17;;;;;;;2.47;0.70;;;;;;;11.87;100.00;99748.25;12191223;19;20399;-81
2022/09/18 06:57:25;;;;;;;1.02;0.70;;;;;;;11.98;100.00;99751.94;12217332;19;20009;-82
2022/09/18 07:01:27;;;;;;;1.38;0.60;;;;;;;12.17;100.00;99755.16;12219588;19;20451;-80
2022/09/18 07:05:41;;;;;;;3.83;0.88;;;;;;;12.35;100.00;99759.47;12198255;19;20017;-81
2022/09/18 07:09:44;;;;;;;2.30;0.70;;;;;;;12.47;100.00;99749.06;12227863;19;20047;-82
2022/09/18 07:13:55;;;;;;;0.52;0.35;;;;;;;12.63;100.00;99753.63;12221136;19;20026;-82
2022/09/18 07:17:59;;;;;;;1.92;0.50;;;;;;;12.73;100.00;99762.00;12204744;19;20019;-80
2022/09/18 07:22:03;;;;;;;0.50;0.30;;;;;;;12.77;100.00;99765.06;12226168;19;20021;-79
2022/09/18 07:26:11;;;;;;;1.58;0.40;;;;;;;12.80;100.00;99763.69;12221359;19;20010;-81
2022/09/18 07:30:13;;;;;;;1.00;0.30;;;;;;;12.89;100.00;99762.09;12214967;19;20007;-80
2022/09/18 07:34:16;;;;;;;0.57;0.30;;;;;;;12.97;100.00;99759.69;12218699;19;20506;-80
2022/09/18 07:38:18;;;;;;;0.45;0.38;;;;;;;13.05;100.00;99747.25;12187614;19;20038;-81
2022/09/18 07:42:25;;;;;;;1.45;0.40;;;;;;;13.16;100.00;99764.75;12220779;19;20011;-81
2022/09/18 07:46:28;;;;;;;1.15;0.40;;;;;;;13.31;100.00;99766.81;12217821;19;20609;-81
2022/09/18 07:50:35;;;;;;;2.13;0.40;;;;;;;13.29;100.00;99760.69;12197103;19;20015;-80
2022/09/18 07:54:36;;;;;;;1.13;0.52;;;;;;;13.39;100.00;99766.31;12216921;19;20139;-81
2022/09/18 07:58:41;;;;;;;1.35;0.40;;;;;;;13.48;100.00;99764.69;12224367;19;20567;-81
2022/09/18 08:03:07;;;;;;;0.93;0.50;;;;;;;13.57;99.89;99749.22;12192838;19;20032;-80
2022/09/18 08:07:26;;;;;;;1.33;0.40;;;;;;;13.82;99.45;99751.22;12211229;19;20594;-82
2022/09/18 08:11:51;;;;;;;1.92;0.50;;;;;;;13.82;96.84;99753.16;12173859;19;20021;-83
2022/09/18 08:16:13;;;;;;;0.93;0.40;;;;;;;13.90;97.42;99759.00;12225100;19;20007;-81
2022/09/18 08:20:33;;;;;;;0.82;0.60;;;;;;;14.03;95.95;99752.09;12206909;19;20038;-82
2022/09/18 08:24:52;;;;;;;1.23;0.50;;;;;;;14.13;94.90;99754.06;12227461;19;20007;-81
2022/09/18 08:28:53;;;;;;;2.05;0.50;;;;;;;14.22;93.29;99759.88;12228194;19;20057;-82
2022/09/18 08:33:04;;;;;;;1.73;0.60;;;;;;;14.34;92.19;99752.16;12205851;19;20029;-82
2022/09/18 08:37:06;;;;;;;1.10;0.60;;;;;;;14.45;92.32;99742.72;12228026;19;20010;-82
2022/09/18 08:41:53;;;;;;;0.40;0.40;;;;;;;14.54;91.28;99751.34;12206925;19;20014;-80
2022/09/18 08:46:22;;;;;;;1.20;0.50;;;;;;;14.47;89.21;99751.59;12226222;19;20040;-83
2022/09/18 08:50:29;;;;;;;1.08;0.52;;;;;;;14.62;90.45;99759.09;12210847;19;20070;-82
2022/09/18 08:54:45;;;;;;;4.80;0.88;;;;;;;14.65;90.93;99755.78;12210486;19;20006;-82
2022/09/18 08:59:36;;;;;;;2.40;0.80;;;;;;;14.68;89.52;99751.63;12250027;19;20045;-78
2022/09/18 09:03:55;;;;;;;2.38;0.73;;;;;;;14.63;88.83;99749.66;12236373;19;20283;-81
2022/09/18 09:08:35;;;;;;;2.20;1.00;;;;;;;14.54;87.84;99754.94;12253261;19;20010;-81
2022/09/18 09:12:40;;;;;;;3.13;1.40;;;;;;;14.36;88.18;99758.22;12224056;19;20059;-81
2022/09/18 09:17:12;;;;;;;2.30;1.10;;;;;;;14.31;89.21;99759.06;12224761;19;20689;-80
2022/09/18 09:21:21;;;;;;;3.47;1.33;;;;;;;14.31;89.59;99761.03;12203197;19;20011;-80
2022/09/18 09:25:51;;;;;;;6.80;1.67;;;;;;;14.29;89.65;99761.28;12222438;19;20030;-80
2022/09/18 09:30:13;;;;;;;3.63;1.30;;;;;;;14.14;88.35;99770.41;12200110;19;20010;-80
2022/09/18 09:34:49;;;;;;;4.45;1.35;;;;;;;14.31;89.22;99758.25;12214486;19;20417;-80
2022/09/18 09:39:34;;;;;;;4.93;1.40;;;;;;;14.44;86.58;99757.69;12188996;19;20035;-80
2022/09/18 09:43:52;;;;;;;2.95;1.30;;;;;;;14.63;86.24;99740.53;12210503;19;20463;-81
2022/09/18 09:48:05;;;;;;;5.00;1.48;;;;;;;14.86;83.93;99742.72;12185962;19;20472;-80
2022/09/18 09:52:10;;;;;;;4.10;1.45;;;;;;;14.83;82.14;99746.06;12204432;19;20383;-82
2022/09/18 09:56:29;;;;;;;4.85;1.70;;;;;;;14.94;80.86;99742.16;12188472;19;20049;-80
2022/09/18 10:00:40;;;;;;;4.13;1.30;;;;;;;14.93;79.92;99743.28;12213524;19;20014;-81
2022/09/18 10:04:55;;;;;;;5.20;1.48;;;;;;;15.16;80.54;99758.47;12197561;19;20122;-85
2022/09/18 10:09:36;;;;;;;4.13;1.40;;;;;;;14.86;78.42;99750.22;12185062;19;20410;-81
2022/09/18 10:13:43;;;;;;;2.72;0.98;;;;;;;14.85;79.48;99757.72;12206076;19;20082;-81
2022/09/18 10:17:49;;;;;;;1.92;0.90;;;;;;;14.97;80.16;99760.19;12193571;19;20349;-85
2022/09/18 10:21:54;;;;;;;2.95;1.02;;;;;;;15.12;79.24;99751.81;12212185;19;20014;-83
2022/09/18 10:25:59;;;;;;;3.75;1.00;;;;;;;15.17;78.25;99760.16;12211973;19;20024;-81
2022/09/18 10:30:11;;;;;;;3.58;0.80;;;;;;;15.21;76.48;99754.88;12189712;19;20126;-80
2022/09/18 10:34:43;;;;;;;6.00;1.20;;;;;;;15.46;76.73;99740.88;12209731;19;20074;-81
2022/09/18 10:38:49;;;;;;;4.63;1.08;;;;;;;15.66;75.28;99744.69;12202192;19;20028;-83
2022/09/18 10:42:59;;;;;;;2.33;0.90;;;;;;;15.80;74.56;99737.44;12218757;19;20011;-83
2022/09/18 10:47:18;;;;;;;2.60;0.90;;;;;;;15.80;73.52;99725.50;12222022;19;20746;-82
2022/09/18 10:51:20;;;;;;;2.47;0.80;;;;;;;15.86;73.06;99733.50;12201010;19;20523;-81
2022/09/18 10:55:26;;;;;;;3.33;0.70;;;;;;;15.70;71.89;99734.69;12220996;19;20014;-82
2022/09/18 10:59:38;;;;;;;2.03;0.70;;;;;;;15.57;71.64;99724.19;12207899;19;20010;-84
2022/09/18 11:04:00;;;;;;;2.92;0.70;;;;;;;15.65;72.30;99732.75;12217494;19;20002;-80
2022/09/18 11:08:12;;;;;;;2.33;0.90;;;;;;;15.44;72.07;99729.25;12214256;19;20063;-80
2022/09/18 11:12:21;;;;;;;2.75;1.10;;;;;;;15.54;72.84;99733.09;12198371;19;20018;-82
2022/09/18 11:16:35;;;;;;;3.47;1.10;;;;;;;15.64;72.15;99735.81;12220986;19;20018;-83
2022/09/18 11:20:43;;;;;;;4.40;1.05;;;;;;;15.62;71.69;99730.56;12196213;19;20074;-84
2022/09/18 11:25:06;;;;;;;3.35;0.85;;;;;;;15.59;72.60;99720.00;12218012;19;20396;-82
2022/09/18 11:29:30;;;;;;;4.20;0.90;;;;;;;15.79;72.98;99726.59;12217184;19;20014;-84
2022/09/18 11:33:42;;;;;;;6.05;1.45;;;;;;;15.60;71.84;99730.00;12197838;19;20010;-84
2022/09/18 11:37:51;;;;;;;3.03;1.25;;;;;;;15.42;71.47;99714.81;12219725;19;20027;-84
2022/09/18 11:41:55;;;;;;;4.85;1.27;;;;;;;15.14;72.50;99719.09;12199796;19;20022;-82
2022/09/18 11:46:27;;;;;;;5.97;1.92;;;;;;;14.86;73.81;99726.06;12218576;19;20023;-81
2022/09/18 11:50:32;;;;;;;4.50;1.80;;;;;;;14.59;74.15;99718.91;12198365;19;20007;-83
2022/09/18 11:54:42;;;;;;;6.82;1.13;;;;;;;14.56;74.93;99711.13;12219312;19;20013;-82
2022/09/18 11:58:54;;;;;;;2.50;1.10;;;;;;;14.45;73.88;99714.16;12221892;19;20029;-83
2022/09/18 12:03:23;;;;;;;5.93;1.50;;;;;;;14.29;73.98;99710.56;12195059;19;20010;-82
2022/09/18 12:07:37;;;;;;;2.70;1.02;;;;;;;14.31;74.36;99713.91;12216347;19;20003;-81
2022/09/18 12:11:55;;;;;;;3.65;1.00;;;;;;;14.37;74.26;99704.47;12197212;19;20014;-81
2022/09/18 12:16:16;;;;;;;2.40;0.93;;;;;;;14.62;74.43;99703.66;12219518;19;20562;-83
2022/09/18 12:20:38;;;;;;;3.65;1.02;;;;;;;14.75;73.80;99689.22;12195386;19;20041;-82
2022/09/18 12:24:40;;;;;;;7.95;1.25;;;;;;;14.86;73.78;99678.91;12204327;19;20010;-82
2022/09/18 12:29:12;;;;;;;6.25;1.00;;;;;;;14.99;73.92;99681.13;12231135;19;20010;-84
2022/09/18 12:33:33;;;;;;;5.18;1.40;;;;;;;15.01;73.94;99678.03;12223667;19;20058;-79
2022/09/18 12:38:08;;;;;;;5.55;1.30;;;;;;;14.89;73.76;99681.13;12248325;19;20007;-80
2022/09/18 12:42:34;;;;;;;;;;;;;;;14.75;74.56;99680.03;12223945;19;20048;-80
2022/09/18 12:46:44;;;;;;;2.45;0.98;;;;;;;14.70;74.54;99668.97;12215112;19;19923;-82
2022/09/18 12:51:09;;;;;;;4.57;1.05;;;;;;;14.73;73.39;99657.31;12191645;19;20037;-81
2022/09/18 12:55:20;;;;;;;4.40;1.10;;;;;;;14.92;73.73;99655.59;12207332;19;20022;-84
2022/09/18 12:59:46;;;;;;;2.85;0.80;;;;;;;15.00;73.04;99652.25;12188265;19;20027;-82
2022/09/18 13:03:49;;;;;;;3.78;1.02;;;;;;;15.04;72.87;99652.50;12208003;19;20480;-81
2022/09/18 13:08:13;;;;;;;3.47;1.17;;;;;;;14.96;71.27;99656.72;12211296;19;20603;-81
2022/09/18 13:12:20;;;;;;;3.15;1.08;;;;;;;15.13;72.09;99652.75;12193531;19;20058;-82
2022/09/18 13:16:37;;;;;;;4.63;1.15;;;;;;;15.08;71.24;99653.63;12213795;19;20014;-82
2022/09/18 13:20:43;;;;;;;4.90;0.95;;;;;;;15.10;71.89;99643.03;12182272;19;20006;-81
2022/09/18 13:24:49;;;;;;;1.25;0.90;;;;;;;15.02;70.97;99651.94;12203251;19;20379;-82
2022/09/18 13:28:50;;;;;;;3.83;1.45;;;;;;;14.93;69.74;99643.41;12210300;19;20021;-82
2022/09/18 13:32:53;;;;;;;3.60;1.40;;;;;;;14.85;70.46;99640.38;12190401;19;20015;-83
2022/09/18 13:37:05;;;;;;;2.88;1.10;;;;;;;14.69;70.26;99628.47;12214665;19;20348;-80
2022/09/18 13:41:10;;;;;;;5.25;1.23;;;;;;;14.58;70.68;99628.50;12219757;19;20007;-85
2022/09/18 13:45:12;;;;;;;2.35;1.13;;;;;;;14.60;71.55;99625.44;12190232;19;20114;-83
2022/09/18 13:49:27;;;;;;;3.47;1.10;;;;;;;14.61;72.04;99620.75;12209217;19;20034;-82
2022/09/18 13:53:34;;;;;;;5.38;1.90;;;;;;;14.65;72.81;99619.06;12185912;19;20019;-81
2022/09/18 13:57:36;;;;;;;5.13;1.30;;;;;;;14.61;73.72;99618.81;12210659;19;20015;-80
2022/09/18 14:01:41;;;;;;;4.22;0.93;;;;;;;14.50;73.05;99619.91;12214458;19;20114;-81
2022/09/18 14:05:43;;;;;;;2.85;1.33;;;;;;;14.55;73.28;99614.38;12180385;19;20462;-79
2022/09/18 14:10:19;;;;;;;4.35;1.30;;;;;;;14.53;74.09;99617.44;12200638;19;20033;-79
2022/09/18 14:14:24;;;;;;;3.30;1.10;;;;;;;14.53;73.31;99616.59;12181934;19;20011;-80
2022/09/18 14:18:46;;;;;;;5.07;1.48;;;;;;;14.56;73.33;99616.84;12204210;19;20034;-82
2022/09/18 14:22:48;;;;;;;2.57;1.20;;;;;;;14.60;73.46;99611.56;12201517;19;20027;-82
2022/09/18 14:27:20;;;;;;;1.75;1.20;;;;;;;14.60;73.82;99617.13;12183750;19;20551;-82
2022/09/18 14:31:24;;;;;;;3.80;1.25;;;;;;;14.55;73.71;99609.66;12211256;19;20037;-82
2022/09/18 14:35:32;;;;;;;4.38;1.40;;;;;;;14.58;73.63;99606.31;12193657;19;20014;-82
2022/09/18 14:39:36;;;;;;;2.78;1.13;;;;;;;14.60;73.70;99606.03;12214684;19;20007;-81
2022/09/18 14:43:46;;;;;;;5.00;1.70;;;;;;;14.51;73.50;99608.53;12216037;19;20014;-84
2022/09/18 14:47:48;;;;;;;3.03;1.23;;;;;;;14.49;72.93;99604.38;12183441;19;20014;-82
2022/09/18 14:51:50;;;;;;;4.45;1.40;;;;;;;14.53;72.33;99599.97;12219887;19;20546;-82
2022/09/18 14:56:08;;;;;;;5.65;1.50;;;;;;;14.52;71.96;99599.13;12220209;19;20010;-81
2022/09/18 15:00:21;;;;;;;4.70;1.20;;;;;;;14.53;72.23;99586.94;12200482;19;20003;-83
2022/09/18 15:04:24;;;;;;;;;;;;;;;14.44;72.11;99582.22;12218863;19;20070;-81
2022/09/18 15:08:26;;;;;;;;;;;;;;;14.44;72.44;99580.25;12196063;19;19938;-84
2022/09/18 15:12:30;;;;;;;10.02;1.80;;;;;;;14.42;73.21;99579.72;12216973;19;19906;-83
2022/09/18 15:16:32;;;;;;;5.00;1.30;;;;;;;14.41;73.61;99574.47;12221172;19;20033;-82
2022/09/18 15:20:33;;;;;;;4.43;1.63;;;;;;;14.39;73.91;99571.94;12204409;19;20015;-83
2022/09/18 15:24:36;;;;;;;;;;;;;;;14.36;74.03;99561.44;12241573;19;20054;-79
2022/09/18 15:28:41;;;;;;;3.75;1.42;;;;;;;14.39;74.22;99560.03;12236516;19;19928;-81
2022/09/18 15:32:48;;;;;;;2.92;1.30;;;;;;;14.35;74.70;99548.69;12201602;19;20415;-81
2022/09/18 15:36:59;;;;;;;2.15;1.30;;;;;;;14.33;75.80;99550.91;12218951;19;20011;-80
2022/09/18 15:41:22;;;;;;;3.08;1.38;;;;;;;14.28;75.71;99556.47;12226193;19;20007;-81
2022/09/18 15:45:26;;;;;;;7.03;1.42;;;;;;;14.18;76.92;99553.72;12201024;19;20014;-82
2022/09/18 15:49:33;;;;;;;1.92;1.58;;;;;;;14.10;76.45;99555.13;12219816;19;20460;-83
2022/09/18 15:53:36;;;;;;;3.42;1.55;;;;;;;14.05;76.70;99546.81;12196223;19;20006;-80
2022/09/18 15:57:47;;;;;;;3.78;1.85;;;;;;;14.01;76.77;99549.31;12222949;19;20006;-82
2022/09/18 16:01:48;;;;;;;2.35;1.05;;;;;;;13.95;76.25;99546.81;12222793;19;20074;-81
2022/09/18 16:05:56;;;;;;;2.47;1.58;;;;;;;13.94;74.66;99554.28;12197223;19;20017;-82
2022/09/18 16:09:58;;;;;;;5.25;1.33;;;;;;;13.83;72.74;99553.50;12219727;19;20009;-81
2022/09/18 16:14:00;;;;;;;4.45;1.50;;;;;;;13.85;71.95;99550.44;12219821;19;20003;-80
2022/09/18 16:18:21;;;;;;;2.10;0.90;;;;;;;13.87;72.35;99553.75;12199393;19;20007;-80
2022/09/18 16:22:26;;;;;;;2.53;1.00;;;;;;;13.81;70.55;99549.34;12223686;19;20013;-80
2022/09/18 16:26:33;;;;;;;2.65;1.00;;;;;;;13.81;70.85;99550.16;12193588;19;20023;-81
2022/09/18 16:30:36;;;;;;;4.00;0.85;;;;;;;13.80;70.35;99544.88;12218084;19;20002;-82
2022/09/18 16:34:39;;;;;;;2.40;1.05;;;;;;;13.84;71.05;99546.00;12228865;19;20089;-82
2022/09/18 16:38:40;;;;;;;2.28;1.08;;;;;;;13.71;71.69;99543.78;12207694;19;20018;-81
2022/09/18 16:42:42;;;;;;;3.17;0.95;;;;;;;13.65;71.46;99551.25;12224650;19;20033;-81
2022/09/18 16:46:49;;;;;;;6.05;1.38;;;;;;;13.56;71.55;99548.19;12225028;19;20015;-82
2022/09/18 16:50:51;;;;;;;3.33;0.98;;;;;;;13.53;72.35;99543.22;12201174;19;20014;-82
2022/09/18 16:54:53;;;;;;;2.83;1.15;;;;;;;13.52;72.43;99549.88;12221233;19;20022;-80
2022/09/18 16:58:56;;;;;;;3.17;1.10;;;;;;;13.46;72.81;99548.22;12221209;19;20006;-83
2022/09/18 17:02:59;;;;;;;4.80;2.17;;;;;;;13.40;72.72;99554.84;12199138;19;20007;-81
2022/09/18 17:07:01;;;;;;;4.57;1.98;;;;;;;13.35;74.27;99550.13;12215523;19;20007;-82
2022/09/18 17:11:05;;;;;;;3.10;1.70;;;;;;;13.21;75.75;99552.56;12213426;19;20014;-80
2022/09/18 17:15:07;;;;;;;3.45;1.70;;;;;;;13.11;77.14;99549.75;12192047;19;20014;-81
2022/09/18 17:19:12;;;;;;;;;;;;;;;13.00;77.29;99546.16;12217192;19;20011;-83
2022/09/18 17:23:14;;;;;;;4.40;1.42;;;;;;;12.93;78.75;99544.75;12218053;19;19930;-83
2022/09/18 17:27:17;;;;;;;2.35;1.10;;;;;;;12.83;79.88;99548.31;12186308;19;20093;-81
2022/09/18 17:31:19;;;;;;;3.78;1.48;;;;;;;12.74;80.62;99547.19;12215542;19;20011;-82
2022/09/18 17:35:21;;;;;;;4.27;2.30;;;;;;;12.65;81.80;99555.16;12217212;19;20510;-80
2022/09/18 17:39:23;;;;;;;6.95;2.75;;;;;;;12.58;82.60;99549.03;12192923;19;20011;-80
2022/09/18 17:43:25;;;;;;;3.70;1.67;;;;;;;12.51;83.35;99538.22;12211373;19;20107;-82
2022/09/18 17:47:26;;;;;;;4.63;2.30;;;;;;;12.48;84.03;99544.28;12191804;19;20397;-80
2022/09/18 17:51:28;;;;;;;6.60;3.60;;;;;;;12.42;85.19;99548.13;12211993;19;20025;-82
2022/09/18 17:55:31;;;;;;;4.68;2.22;;;;;;;12.34;86.05;99556.09;12211813;19;20003;-78
2022/09/18 17:59:33;;;;;;;5.90;2.35;;;;;;;12.33;86.29;99552.50;12194673;19;20002;-80
2022/09/18 18:03:35;;;;;;;5.60;1.92;;;;;;;12.29;86.56;99546.69;12210630;19;20046;-82
2022/09/18 18:07:37;;;;;;;3.90;1.75;;;;;;;12.29;86.85;99543.91;12209716;19;20015;-81
2022/09/18 18:11:38;;;;;;;4.05;1.48;;;;;;;12.25;87.90;99541.94;12189145;19;20026;-82
2022/09/18 18:15:40;;;;;;;8.57;3.75;;;;;;;12.22;88.96;99546.06;12217260;19;20521;-82
2022/09/18 18:19:42;;;;;;;7.10;3.80;;;;;;;12.20;90.10;99550.22;12235718;19;20090;-81
2022/09/18 18:23:44;;;;;;;6.75;2.78;;;;;;;12.13;91.74;99553.19;12205108;19;20390;-81
2022/09/18 18:27:45;;;;;;;11.17;3.73;;;;;;;12.09;92.78;99563.13;12209720;19;20010;-80
2022/09/18 18:31:48;;;;;;;5.88;3.05;;;;;;;12.08;94.47;99561.47;12211205;19;20463;-80
2022/09/18 18:35:49;;;;;;;4.88;3.03;;;;;;;12.06;95.55;99547.09;12191534;19;20011;-81
2022/09/18 18:39:51;;;;;;;6.38;2.72;;;;;;;12.05;96.81;99556.47;12217085;19;20047;-82
2022/09/18 18:43:55;;;;;;;6.65;1.90;;;;;;;12.01;97.76;99541.53;12219848;19;20014;-80
2022/09/18 18:47:57;;;;;;;6.93;2.17;;;;;;;11.95;98.35;99540.66;12195896;19;20127;-81
2022/09/18 18:52:02;;;;;;;6.97;2.40;;;;;;;11.91;99.52;99549.75;12216806;19;20026;-80
2022/09/18 18:56:06;;;;;;;8.82;2.95;;;;;;;11.82;100.00;99547.44;12225917;19;20561;-81
2022/09/18 19:00:08;;;;;;;8.43;2.83;;;;;;;11.79;100.00;99552.66;12218909;19;20006;-79
2022/09/18 19:04:12;;;;;;;5.03;2.72;;;;;;;11.78;100.00;99554.59;12229838;19;20014;-80
2022/09/18 19:08:14;;;;;;;6.15;2.70;;;;;;;11.70;100.00;99566.13;12231479;19;20041;-81
2022/09/18 19:12:16;;;;;;;9.52;3.13;;;;;;;11.66;100.00;99562.22;12212340;19;20015;-81
2022/09/18 19:16:20;;;;;;;6.45;2.60;;;;;;;11.67;100.00;99563.88;12235641;19;20007;-80